sensor_id;sensor_type;location;lat;lon;timestamp;pressure;altitude;pressure_sealevel;temperature;humidity
58239;BME280;44037;55.638;37.356;2023-06-14T00:01:49;99544.41;;;13.89;68.32
58239;BME280;44037;55.638;37.356;2023-06-14T00:04:16;99541.81;;;13.89;68.03
58239;BME280;44037;55.638;37.356;2023-06-14T00:06:45;99539.19;;;13.87;68.32
58239;BME280;44037;55.638;37.356;2023-06-14T00:09:14;99547.00;;;13.87;68.20
58239;BME280;44037;55.638;37.356;2023-06-14T00:11:43;99546.16;;;13.87;68.54
58239;BME280;44037;55.638;37.356;2023-06-14T00:14:10;99547.88;;;13.86;67.63
58239;BME280;44037;55.638;37.356;2023-06-14T00:16:37;99543.56;;;13.85;68.23
58239;BME280;44037;55.638;37.356;2023-06-14T00:19:04;99541.84;;;13.84;68.15
58239;BME280;44037;55.638;37.356;2023-06-14T00:21:32;99543.56;;;13.85;68.47
58239;BME280;44037;55.638;37.356;2023-06-14T00:24:00;99543.56;;;13.85;68.33
58239;BME280;44037;55.638;37.356;2023-06-14T00:26:27;99538.38;;;13.85;68.55
58239;BME280;44037;55.638;37.356;2023-06-14T00:28:54;99543.56;;;13.85;67.95
58239;BME280;44037;55.638;37.356;2023-06-14T00:31:22;99540.09;;;13.83;67.87
58239;BME280;44037;55.638;37.356;2023-06-14T00:33:49;99539.25;;;13.81;67.73
58239;BME280;44037;55.638;37.356;2023-06-14T00:36:16;99534.91;;;13.80;68.06
58239;BME280;44037;55.638;37.356;2023-06-14T00:38:43;99542.72;;;13.80;67.77
58239;BME280;44037;55.638;37.356;2023-06-14T00:41:12;99544.44;;;13.81;67.86
58239;BME280;44037;55.638;37.356;2023-06-14T00:43:39;99534.91;;;13.80;68.12
58239;BME280;44037;55.638;37.356;2023-06-14T00:46:06;99534.03;;;13.81;68.54
58239;BME280;44037;55.638;37.356;2023-06-14T00:48:33;99538.38;;;13.80;68.69
58239;BME280;44037;55.638;37.356;2023-06-14T00:51:01;99530.56;;;13.80;68.74
58239;BME280;44037;55.638;37.356;2023-06-14T00:53:30;99540.13;;;13.80;68.60
58239;BME280;44037;55.638;37.356;2023-06-14T00:56:00;99538.38;;;13.80;68.89
58239;BME280;44037;55.638;37.356;2023-06-14T00:58:28;99534.88;;;13.81;68.13
58239;BME280;44037;55.638;37.356;2023-06-14T01:00:56;99539.22;;;13.82;68.54
58239;BME280;44037;55.638;37.356;2023-06-14T01:03:23;99531.41;;;13.84;68.38
58239;BME280;44037;55.638;37.356;2023-06-14T01:05:56;99532.25;;;13.88;68.04
58239;BME280;44037;55.638;37.356;2023-06-14T01:08:36;99537.47;;;13.91;68.66
58239;BME280;44037;55.638;37.356;2023-06-14T01:11:12;99532.22;;;13.94;68.32
58239;BME280;44037;55.638;37.356;2023-06-14T01:13:44;99533.94;;;13.96;68.56
58239;BME280;44037;55.638;37.356;2023-06-14T01:16:12;99532.19;;;14.00;68.09
58239;BME280;44037;55.638;37.356;2023-06-14T01:18:41;99535.66;;;14.02;67.98
58239;BME280;44037;55.638;37.356;2023-06-14T01:21:24;99532.16;;;14.05;67.87
58239;BME280;44037;55.638;37.356;2023-06-14T01:23:55;99533.00;;;14.10;68.05
58239;BME280;44037;55.638;37.356;2023-06-14T01:26:22;99534.69;;;14.12;67.70
58239;BME280;44037;55.638;37.356;2023-06-14T01:28:50;99534.66;;;14.17;67.83
58239;BME280;44037;55.638;37.356;2023-06-14T01:31:20;99538.97;;;14.20;67.66
58239;BME280;44037;55.638;37.356;2023-06-14T01:33:49;99539.00;;;14.21;67.69
58239;BME280;44037;55.638;37.356;2023-06-14T01:36:16;99540.69;;;14.24;68.19
58239;BME280;44037;55.638;37.356;2023-06-14T01:38:45;99545.88;;;14.28;67.63
58239;BME280;44037;55.638;37.356;2023-06-14T01:41:16;99539.78;;;14.33;67.48
58239;BME280;44037;55.638;37.356;2023-06-14T01:43:45;99548.41;;;14.38;67.94
58239;BME280;44037;55.638;37.356;2023-06-14T01:46:13;99537.09;;;14.42;67.74
58239;BME280;44037;55.638;37.356;2023-06-14T01:48:41;99544.00;;;14.46;67.55
58239;BME280;44037;55.638;37.356;2023-06-14T01:51:08;99540.47;;;14.52;67.30
58239;BME280;44037;55.638;37.356;2023-06-14T01:53:35;99545.63;;;14.58;67.08
58239;BME280;44037;55.638;37.356;2023-06-14T01:56:02;99542.00;;;14.79;66.78
58239;BME280;44037;55.638;37.356;2023-06-14T01:58:31;99544.28;;;15.12;65.97
58239;BME280;44037;55.638;37.356;2023-06-14T02:00:58;99536.94;;;15.43;65.54
58239;BME280;44037;55.638;37.356;2023-06-14T02:03:26;99535.72;;;15.71;64.75
58239;BME280;44037;55.638;37.356;2023-06-14T02:05:53;99530.13;;;16.00;63.72
58239;BME280;44037;55.638;37.356;2023-06-14T02:08:21;99527.19;;;16.22;63.28
58239;BME280;44037;55.638;37.356;2023-06-14T02:10:48;99524.16;;;16.45;62.39
58239;BME280;44037;55.638;37.356;2023-06-14T02:13:15;99529.91;;;16.69;61.71
58239;BME280;44037;55.638;37.356;2023-06-14T02:15:44;99520.72;;;16.93;61.39
58239;BME280;44037;55.638;37.356;2023-06-14T02:18:11;99516.81;;;17.17;60.81
58239;BME280;44037;55.638;37.356;2023-06-14T02:20:38;99526.88;;;17.38;60.22
58239;BME280;44037;55.638;37.356;2023-06-14T02:23:05;99524.72;;;17.57;59.22
58239;BME280;44037;55.638;37.356;2023-06-14T02:25:33;99526.09;;;17.73;58.95
58239;BME280;44037;55.638;37.356;2023-06-14T02:28:01;99528.44;;;17.87;57.85
58239;BME280;44037;55.638;37.356;2023-06-14T02:30:28;99525.47;;;18.03;57.99
58239;BME280;44037;55.638;37.356;2023-06-14T02:32:58;99525.03;;;18.21;57.87
58239;BME280;44037;55.638;37.356;2023-06-14T02:35:25;99520.13;;;18.44;57.23
58239;BME280;44037;55.638;37.356;2023-06-14T02:37:52;99523.94;;;18.66;57.03
58239;BME280;44037;55.638;37.356;2023-06-14T02:40:19;99528.66;;;18.86;65.27
58239;BME280;44037;55.638;37.356;2023-06-14T02:42:46;99529.22;;;18.65;75.76
58239;BME280;44037;55.638;37.356;2023-06-14T02:45:17;99538.50;;;18.07;81.88
58239;BME280;44037;55.638;37.356;2023-06-14T02:47:45;99527.88;;;17.30;86.48
58239;BME280;44037;55.638;37.356;2023-06-14T02:50:15;99536.03;;;16.66;91.19
58239;BME280;44037;55.638;37.356;2023-06-14T02:52:43;99540.25;;;16.20;96.63
58239;BME280;44037;55.638;37.356;2023-06-14T02:55:11;99539.81;;;15.92;100.00
58239;BME280;44037;55.638;37.356;2023-06-14T02:57:38;99545.22;;;15.76;100.00
58239;BME280;44037;55.638;37.356;2023-06-14T03:00:06;99547.88;;;15.72;100.00
58239;BME280;44037;55.638;37.356;2023-06-14T03:02:35;99546.94;;;15.79;100.00
58239;BME280;44037;55.638;37.356;2023-06-14T03:05:03;99552.81;;;15.96;100.00
58239;BME280;44037;55.638;37.356;2023-06-14T03:07:33;99544.69;;;16.17;100.00
58239;BME280;44037;55.638;37.356;2023-06-14T03:10:00;99551.34;;;16.36;100.00
58239;BME280;44037;55.638;37.356;2023-06-14T03:12:29;99538.00;;;16.53;100.00
58239;BME280;44037;55.638;37.356;2023-06-14T03:14:56;99555.13;;;16.70;100.00
58239;BME280;44037;55.638;37.356;2023-06-14T03:17:30;99546.31;;;16.77;100.00
58239;BME280;44037;55.638;37.356;2023-06-14T03:19:59;99549.69;;;16.84;100.00
58239;BME280;44037;55.638;37.356;2023-06-14T03:22:26;99539.97;;;16.91;100.00
58239;BME280;44037;55.638;37.356;2023-06-14T03:24:55;99544.97;;;17.04;100.00
58239;BME280;44037;55.638;37.356;2023-06-14T03:27:23;99545.53;;;17.20;100.00
58239;BME280;44037;55.638;37.356;2023-06-14T03:29:50;99532.22;;;17.31;99.96
58239;BME280;44037;55.638;37.356;2023-06-14T03:32:17;99539.78;;;17.45;98.97
58239;BME280;44037;55.638;37.356;2023-06-14T03:34:44;99544.78;;;17.58;96.67
58239;BME280;44037;55.638;37.356;2023-06-14T03:37:12;99545.44;;;17.68;93.46
58239;BME280;44037;55.638;37.356;2023-06-14T03:39:39;99538.41;;;17.70;91.55
58239;BME280;44037;55.638;37.356;2023-06-14T03:42:14;99545.31;;;17.74;89.72
58239;BME280;44037;55.638;37.356;2023-06-14T03:44:41;99548.66;;;17.80;89.79
58239;BME280;44037;55.638;37.356;2023-06-14T03:47:08;99545.88;;;17.88;87.14
58239;BME280;44037;55.638;37.356;2023-06-14T03:49:35;99536.13;;;17.93;86.32
58239;BME280;44037;55.638;37.356;2023-06-14T03:52:03;99539.56;;;17.99;86.33
58239;BME280;44037;55.638;37.356;2023-06-14T03:54:30;99548.00;;;18.11;85.53
58239;BME280;44037;55.638;37.356;2023-06-14T03:56:58;99545.00;;;18.27;84.14
58239;BME280;44037;55.638;37.356;2023-06-14T03:59:27;99549.91;;;18.41;82.82
58239;BME280;44037;55.638;37.356;2023-06-14T04:01:55;99546.97;;;18.53;82.32
58239;BME280;44037;55.638;37.356;2023-06-14T04:04:22;99543.00;;;18.73;80.94
58239;BME280;44037;55.638;37.356;2023-06-14T04:06:55;99542.47;;;18.95;79.59
58239;BME280;44037;55.638;37.356;2023-06-14T04:09:23;99539.47;;;19.09;77.71
58239;BME280;44037;55.638;37.356;2023-06-14T04:11:51;99536.38;;;19.26;76.33
58239;BME280;44037;55.638;37.356;2023-06-14T04:14:19;99536.84;;;19.40;74.80
58239;BME280;44037;55.638;37.356;2023-06-14T04:16:47;99539.13;;;19.53;71.68
58239;BME280;44037;55.638;37.356;2023-06-14T04:19:15;99536.38;;;19.56;69.93
58239;BME280;44037;55.638;37.356;2023-06-14T04:21:42;99538.06;;;19.58;68.16
58239;BME280;44037;55.638;37.356;2023-06-14T04:24:09;99534.41;;;19.62;66.01
58239;BME280;44037;55.638;37.356;2023-06-14T04:26:38;99539.66;;;19.64;65.08
58239;BME280;44037;55.638;37.356;2023-06-14T04:29:06;99536.13;;;19.65;63.58
58239;BME280;44037;55.638;37.356;2023-06-14T04:31:33;99535.28;;;19.63;62.29
58239;BME280;44037;55.638;37.356;2023-06-14T04:34:04;99536.19;;;19.62;60.97
58239;BME280;44037;55.638;37.356;2023-06-14T04:36:32;99523.16;;;19.59;60.63
58239;BME280;44037;55.638;37.356;2023-06-14T04:39:00;99528.41;;;19.59;60.14
58239;BME280;44037;55.638;37.356;2023-06-14T04:41:29;99536.16;;;19.63;59.83
58239;BME280;44037;55.638;37.356;2023-06-14T04:43:56;99536.00;;;19.68;58.74
58239;BME280;44037;55.638;37.356;2023-06-14T04:46:24;99533.28;;;19.71;58.87
58239;BME280;44037;55.638;37.356;2023-06-14T04:48:54;99528.84;;;19.73;57.52
58239;BME280;44037;55.638;37.356;2023-06-14T04:51:23;99529.56;;;19.78;57.78
58239;BME280;44037;55.638;37.356;2023-06-14T04:53:55;99528.31;;;19.92;56.83
58239;BME280;44037;55.638;37.356;2023-06-14T04:56:24;99524.75;;;19.94;54.58
58239;BME280;44037;55.638;37.356;2023-06-14T04:58:51;99530.03;;;19.93;55.39
58239;BME280;44037;55.638;37.356;2023-06-14T05:01:19;99530.09;;;19.91;54.65
58239;BME280;44037;55.638;37.356;2023-06-14T05:03:46;99530.16;;;19.90;53.50
58239;BME280;44037;55.638;37.356;2023-06-14T05:06:14;99531.09;;;19.86;52.97
58239;BME280;44037;55.638;37.356;2023-06-14T05:08:44;99520.72;;;19.81;53.07
58239;BME280;44037;55.638;37.356;2023-06-14T05:11:11;99524.91;;;19.88;53.48
58239;BME280;44037;55.638;37.356;2023-06-14T05:13:38;99527.41;;;19.93;52.54
58239;BME280;44037;55.638;37.356;2023-06-14T05:16:06;99521.09;;;19.99;52.93
58239;BME280;44037;55.638;37.356;2023-06-14T05:18:33;99526.81;;;20.12;51.91
58239;BME280;44037;55.638;37.356;2023-06-14T05:21:01;99526.53;;;20.21;51.78
58239;BME280;44037;55.638;37.356;2023-06-14T05:23:29;99522.66;;;20.33;50.80
58239;BME280;44037;55.638;37.356;2023-06-14T05:25:57;99526.03;;;20.36;49.98
58239;BME280;44037;55.638;37.356;2023-06-14T05:28:25;99523.59;;;20.30;48.84
58239;BME280;44037;55.638;37.356;2023-06-14T05:30:52;99526.44;;;20.24;47.71
58239;BME280;44037;55.638;37.356;2023-06-14T05:43:44;99528.03;;;20.55;45.75
58239;BME280;44037;55.638;37.356;2023-06-14T05:46:11;99534.22;;;20.54;44.79
58239;BME280;44037;55.638;37.356;2023-06-14T05:48:38;99529.25;;;20.45;45.50
58239;BME280;44037;55.638;37.356;2023-06-14T05:51:05;99534.50;;;20.45;46.67
58239;BME280;44037;55.638;37.356;2023-06-14T05:53:34;99538.44;;;20.60;45.32
58239;BME280;44037;55.638;37.356;2023-06-14T05:56:02;99531.22;;;20.65;42.46
58239;BME280;44037;55.638;37.356;2023-06-14T05:58:29;99538.25;;;20.64;42.30
58239;BME280;44037;55.638;37.356;2023-06-14T06:00:57;99531.97;;;20.68;42.56
58239;BME280;44037;55.638;37.356;2023-06-14T06:03:24;99529.16;;;20.75;40.09
58239;BME280;44037;55.638;37.356;2023-06-14T06:05:54;99530.00;;;20.75;39.60
58239;BME280;44037;55.638;37.356;2023-06-14T06:08:21;99536.22;;;20.72;38.54
58239;BME280;44037;55.638;37.356;2023-06-14T06:10:49;99547.00;;;20.65;38.24
58239;BME280;44037;55.638;37.356;2023-06-14T06:13:16;99540.19;;;20.59;38.91
58239;BME280;44037;55.638;37.356;2023-06-14T06:15:43;99536.69;;;20.59;40.05
58239;BME280;44037;55.638;37.356;2023-06-14T06:18:12;99528.59;;;20.65;40.79
58239;BME280;44037;55.638;37.356;2023-06-14T06:20:39;99527.28;;;20.78;39.96
58239;BME280;44037;55.638;37.356;2023-06-14T06:23:06;99528.84;;;20.84;39.47
58239;BME280;44037;55.638;37.356;2023-06-14T06:25:33;99525.19;;;20.88;39.21
58239;BME280;44037;55.638;37.356;2023-06-14T06:28:00;99528.19;;;21.02;38.86
58239;BME280;44037;55.638;37.356;2023-06-14T06:30:27;99527.78;;;21.13;38.44
58239;BME280;44037;55.638;37.356;2023-06-14T06:32:54;99519.59;;;21.21;38.30
58239;BME280;44037;55.638;37.356;2023-06-14T06:35:23;99528.22;;;21.26;38.22
58239;BME280;44037;55.638;37.356;2023-06-14T06:37:50;99525.22;;;21.36;37.42
58239;BME280;44037;55.638;37.356;2023-06-14T06:40:17;99523.50;;;21.35;36.81
58239;BME280;44037;55.638;37.356;2023-06-14T06:42:46;99521.13;;;21.28;36.76
58239;BME280;44037;55.638;37.356;2023-06-14T06:45:14;99532.88;;;21.18;36.21
58239;BME280;44037;55.638;37.356;2023-06-14T06:47:41;99532.75;;;20.97;37.07
58239;BME280;44037;55.638;37.356;2023-06-14T06:50:08;99534.09;;;20.84;36.03
58239;BME280;44037;55.638;37.356;2023-06-14T06:52:36;99526.53;;;20.75;35.82
58239;BME280;44037;55.638;37.356;2023-06-14T06:55:04;99521.56;;;20.65;36.04
58239;BME280;44037;55.638;37.356;2023-06-14T06:57:31;99525.09;;;20.64;36.48
58239;BME280;44037;55.638;37.356;2023-06-14T06:59:58;99520.50;;;20.71;36.68
58239;BME280;44037;55.638;37.356;2023-06-14T07:02:26;99512.38;;;20.79;37.13
58239;BME280;44037;55.638;37.356;2023-06-14T07:04:53;99512.69;;;20.93;37.40
58239;BME280;44037;55.638;37.356;2023-06-14T07:07:20;99507.69;;;21.11;37.37
58239;BME280;44037;55.638;37.356;2023-06-14T07:09:48;99514.25;;;21.24;37.15
58239;BME280;44037;55.638;37.356;2023-06-14T07:12:16;99511.25;;;21.33;36.97
58239;BME280;44037;55.638;37.356;2023-06-14T07:14:43;99506.44;;;21.45;36.43
58239;BME280;44037;55.638;37.356;2023-06-14T07:17:10;99508.03;;;21.49;35.91
58239;BME280;44037;55.638;37.356;2023-06-14T07:19:37;99500.84;;;21.54;36.12
58239;BME280;44037;55.638;37.356;2023-06-14T07:22:04;99504.91;;;21.63;36.26
58239;BME280;44037;55.638;37.356;2023-06-14T07:24:31;99508.13;;;21.71;36.61
58239;BME280;44037;55.638;37.356;2023-06-14T07:26:59;99499.16;;;21.75;35.85
58239;BME280;44037;55.638;37.356;2023-06-14T07:29:27;99498.31;;;21.75;35.76
58239;BME280;44037;55.638;37.356;2023-06-14T07:31:54;99500.31;;;21.68;35.39
58239;BME280;44037;55.638;37.356;2023-06-14T07:34:21;99499.34;;;21.71;35.69
58239;BME280;44037;55.638;37.356;2023-06-14T07:36:48;99492.16;;;21.74;35.77
58239;BME280;44037;55.638;37.356;2023-06-14T07:39:15;99500.06;;;21.74;34.54
58239;BME280;44037;55.638;37.356;2023-06-14T07:41:42;99496.81;;;21.68;34.82
58239;BME280;44037;55.638;37.356;2023-06-14T07:44:10;99495.13;;;21.67;34.23
58239;BME280;44037;55.638;37.356;2023-06-14T07:46:39;99501.31;;;21.66;35.37
58239;BME280;44037;55.638;37.356;2023-06-14T07:49:06;99498.53;;;21.69;35.48
58239;BME280;44037;55.638;37.356;2023-06-14T07:51:33;99497.44;;;21.74;35.42
58239;BME280;44037;55.638;37.356;2023-06-14T07:54:00;99495.47;;;21.79;34.47
58239;BME280;44037;55.638;37.356;2023-06-14T07:56:27;99494.34;;;21.63;33.92
58239;BME280;44037;55.638;37.356;2023-06-14T07:58:55;99501.59;;;21.56;34.55
58239;BME280;44037;55.638;37.356;2023-06-14T08:01:23;99494.69;;;21.54;34.67
58239;BME280;44037;55.638;37.356;2023-06-14T08:03:51;99501.91;;;21.48;34.24
58239;BME280;44037;55.638;37.356;2023-06-14T08:06:18;99504.16;;;21.36;34.37
58239;BME280;44037;55.638;37.356;2023-06-14T08:08:45;99497.97;;;21.37;34.81
58239;BME280;44037;55.638;37.356;2023-06-14T08:11:12;99497.56;;;21.47;35.66
58239;BME280;44037;55.638;37.356;2023-06-14T08:13:39;99499.84;;;21.57;35.05
58239;BME280;44037;55.638;37.356;2023-06-14T08:16:06;99498.03;;;21.59;34.95
58239;BME280;44037;55.638;37.356;2023-06-14T08:18:35;99497.06;;;21.61;34.30
58239;BME280;44037;55.638;37.356;2023-06-14T08:21:02;99496.66;;;21.72;34.67
58239;BME280;44037;55.638;37.356;2023-06-14T08:23:29;99500.75;;;21.79;34.24
58239;BME280;44037;55.638;37.356;2023-06-14T08:25:57;99495.28;;;21.84;34.46
58239;BME280;44037;55.638;37.356;2023-06-14T08:28:27;99494.81;;;21.97;33.88
58239;BME280;44037;55.638;37.356;2023-06-14T08:30:54;99498.25;;;21.99;33.53
58239;BME280;44037;55.638;37.356;2023-06-14T08:33:21;99491.38;;;21.94;34.67
58239;BME280;44037;55.638;37.356;2023-06-14T08:35:49;99493.03;;;21.97;34.47
58239;BME280;44037;55.638;37.356;2023-06-14T08:38:16;99486.88;;;21.97;34.22
58239;BME280;44037;55.638;37.356;2023-06-14T08:40:45;99504.81;;;21.88;33.72
58239;BME280;44037;55.638;37.356;2023-06-14T08:43:15;99488.72;;;21.94;34.28
58239;BME280;44037;55.638;37.356;2023-06-14T08:45:42;99498.13;;;22.02;35.27
58239;BME280;44037;55.638;37.356;2023-06-14T08:48:09;99496.13;;;22.07;34.32
58239;BME280;44037;55.638;37.356;2023-06-14T08:50:40;99488.03;;;22.12;33.63
58239;BME280;44037;55.638;37.356;2023-06-14T08:53:10;99492.28;;;22.16;33.97
58239;BME280;44037;55.638;37.356;2023-06-14T08:55:39;99478.28;;;22.14;33.45
58239;BME280;44037;55.638;37.356;2023-06-14T08:58:06;99484.81;;;22.05;33.12
58239;BME280;44037;55.638;37.356;2023-06-14T09:00:35;99485.16;;;21.96;33.76
58239;BME280;44037;55.638;37.356;2023-06-14T09:03:04;99478.44;;;21.88;34.27
58239;BME280;44037;55.638;37.356;2023-06-14T09:05:31;99484.38;;;21.93;33.86
58239;BME280;44037;55.638;37.356;2023-06-14T09:07:58;99478.06;;;21.98;33.63
58239;BME280;44037;55.638;37.356;2023-06-14T09:10:27;99472.25;;;21.89;33.37
58239;BME280;44037;55.638;37.356;2023-06-14T09:12:56;99461.91;;;21.85;33.92
58239;BME280;44037;55.638;37.356;2023-06-14T09:15:25;99461.50;;;21.94;34.38
58239;BME280;44037;55.638;37.356;2023-06-14T09:17:53;99462.78;;;22.06;34.19
58239;BME280;44037;55.638;37.356;2023-06-14T09:20:21;99453.03;;;22.08;34.22
58239;BME280;44037;55.638;37.356;2023-06-14T09:22:50;99463.22;;;22.17;33.66
58239;BME280;44037;55.638;37.356;2023-06-14T09:25:18;99453.97;;;22.28;33.93
58239;BME280;44037;55.638;37.356;2023-06-14T09:27:47;99444.81;;;22.36;33.89
58239;BME280;44037;55.638;37.356;2023-06-14T09:30:14;99453.72;;;22.34;33.80
58239;BME280;44037;55.638;37.356;2023-06-14T09:32:41;99463.53;;;22.30;33.59
58239;BME280;44037;55.638;37.356;2023-06-14T09:35:09;99453.97;;;22.28;33.78
58239;BME280;44037;55.638;37.356;2023-06-14T09:37:36;99458.47;;;22.25;32.39
58239;BME280;44037;55.638;37.356;2023-06-14T09:40:05;99456.81;;;22.23;32.87
58239;BME280;44037;55.638;37.356;2023-06-14T09:42:32;99457.75;;;22.22;32.44
58239;BME280;44037;55.638;37.356;2023-06-14T09:45:03;99457.34;;;22.31;32.96
58239;BME280;44037;55.638;37.356;2023-06-14T09:47:31;99458.75;;;22.40;33.24
58239;BME280;44037;55.638;37.356;2023-06-14T09:49:58;99447.28;;;22.41;33.14
58239;BME280;44037;55.638;37.356;2023-06-14T09:52:27;99455.38;;;22.36;32.81
58239;BME280;44037;55.638;37.356;2023-06-14T09:54:54;99446.38;;;22.42;33.05
58239;BME280;44037;55.638;37.356;2023-06-14T09:57:23;99446.69;;;22.55;33.70
58239;BME280;44037;55.638;37.356;2023-06-14T09:59:56;99442.13;;;22.59;32.51
58239;BME280;44037;55.638;37.356;2023-06-14T10:02:28;99428.91;;;22.59;33.04
58239;BME280;44037;55.638;37.356;2023-06-14T10:05:02;99432.16;;;22.65;32.63
58239;BME280;44037;55.638;37.356;2023-06-14T10:07:34;99422.03;;;22.75;32.68
58239;BME280;44037;55.638;37.356;2023-06-14T10:10:02;99428.97;;;22.78;31.67
58239;BME280;44037;55.638;37.356;2023-06-14T10:12:30;99428.34;;;22.73;31.86
58239;BME280;44037;55.638;37.356;2023-06-14T10:14:58;99426.03;;;22.65;31.17
58239;BME280;44037;55.638;37.356;2023-06-14T10:17:34;99417.81;;;22.71;31.55
58239;BME280;44037;55.638;37.356;2023-06-14T10:20:14;99420.31;;;22.74;31.92
58239;BME280;44037;55.638;37.356;2023-06-14T10:22:47;99421.75;;;22.81;31.77
58239;BME280;44037;55.638;37.356;2023-06-14T10:25:26;99409.34;;;22.83;32.30
58239;BME280;44037;55.638;37.356;2023-06-14T10:28:02;99415.06;;;22.93;32.44
58239;BME280;44037;55.638;37.356;2023-06-14T10:30:29;99403.28;;;23.00;32.49
58239;BME280;44037;55.638;37.356;2023-06-14T10:33:07;99424.50;;;22.99;32.23
58239;BME280;44037;55.638;37.356;2023-06-14T10:35:35;99413.28;;;22.94;32.14
58239;BME280;44037;55.638;37.356;2023-06-14T10:38:09;99399.72;;;23.01;32.66
58239;BME280;44037;55.638;37.356;2023-06-14T10:40:36;99405.44;;;23.11;32.21
58239;BME280;44037;55.638;37.356;2023-06-14T10:43:23;99392.94;;;23.15;32.33
58239;BME280;44037;55.638;37.356;2023-06-14T10:46:15;99400.06;;;23.13;32.04
58239;BME280;44037;55.638;37.356;2023-06-14T10:48:44;99404.50;;;23.12;31.59
58239;BME280;44037;55.638;37.356;2023-06-14T10:51:19;99398.44;;;23.10;31.62
58239;BME280;44037;55.638;37.356;2023-06-14T10:53:47;99393.72;;;23.17;31.62
58239;BME280;44037;55.638;37.356;2023-06-14T10:56:27;99391.88;;;23.19;31.56
58239;BME280;44037;55.638;37.356;2023-06-14T10:58:56;99383.75;;;23.24;31.79
58239;BME280;44037;55.638;37.356;2023-06-14T11:01:33;99387.09;;;23.27;30.68
58239;BME280;44037;55.638;37.356;2023-06-14T11:04:10;99392.38;;;23.27;30.59
58239;BME280;44037;55.638;37.356;2023-06-14T11:06:47;99383.69;;;23.25;30.25
58239;BME280;44037;55.638;37.356;2023-06-14T11:12:22;99380.06;;;23.28;31.97
58239;BME280;44037;55.638;37.356;2023-06-14T11:14:51;99390.84;;;23.23;30.95
58239;BME280;44037;55.638;37.356;2023-06-14T11:17:19;99381.25;;;23.21;32.18
58239;BME280;44037;55.638;37.356;2023-06-14T11:19:47;99379.91;;;23.31;32.01
58239;BME280;44037;55.638;37.356;2023-06-14T11:22:14;99387.41;;;23.21;30.61
58239;BME280;44037;55.638;37.356;2023-06-14T11:24:43;99371.97;;;23.12;30.80
58239;BME280;44037;55.638;37.356;2023-06-14T11:27:10;99370.09;;;23.14;31.07
58239;BME280;44037;55.638;37.356;2023-06-14T11:29:38;99365.19;;;23.25;30.65
58239;BME280;44037;55.638;37.356;2023-06-14T11:32:07;99369.41;;;23.29;30.06
58239;BME280;44037;55.638;37.356;2023-06-14T11:34:38;99365.13;;;23.27;29.71
58239;BME280;44037;55.638;37.356;2023-06-14T11:37:06;99368.34;;;23.34;30.55
58239;BME280;44037;55.638;37.356;2023-06-14T11:39:34;99367.97;;;23.41;29.73
58239;BME280;44037;55.638;37.356;2023-06-14T11:42:01;99367.66;;;23.47;29.53
58239;BME280;44037;55.638;37.356;2023-06-14T11:44:29;99359.25;;;23.57;29.45
58239;BME280;44037;55.638;37.356;2023-06-14T11:46:56;99357.91;;;23.67;29.13
58239;BME280;44037;55.638;37.356;2023-06-14T11:49:23;99357.56;;;23.73;29.53
58239;BME280;44037;55.638;37.356;2023-06-14T11:51:53;99361.16;;;23.72;29.98
58239;BME280;44037;55.638;37.356;2023-06-14T11:54:21;99364.34;;;23.61;29.31
58239;BME280;44037;55.638;37.356;2023-06-14T11:56:49;99363.34;;;23.64;30.04
58239;BME280;44037;55.638;37.356;2023-06-14T11:59:16;99359.75;;;23.65;29.50
58239;BME280;44037;55.638;37.356;2023-06-14T12:01:43;99373.50;;;23.54;29.86
58239;BME280;44037;55.638;37.356;2023-06-14T12:04:11;99355.72;;;23.39;30.00
58239;BME280;44037;55.638;37.356;2023-06-14T12:06:38;99349.22;;;23.46;30.09
58239;BME280;44037;55.638;37.356;2023-06-14T12:09:06;99358.88;;;23.47;29.80
58239;BME280;44037;55.638;37.356;2023-06-14T12:11:39;99346.53;;;23.28;29.85
58239;BME280;44037;55.638;37.356;2023-06-14T12:14:08;99360.63;;;23.29;30.04
58239;BME280;44037;55.638;37.356;2023-06-14T12:16:38;99345.25;;;23.37;29.98
58239;BME280;44037;55.638;37.356;2023-06-14T12:19:12;99336.94;;;23.45;30.51
58239;BME280;44037;55.638;37.356;2023-06-14T12:21:39;99333.44;;;23.44;30.29
58239;BME280;44037;55.638;37.356;2023-06-14T12:24:07;99332.34;;;23.49;30.89
58239;BME280;44037;55.638;37.356;2023-06-14T12:26:39;99331.13;;;23.56;30.41
58239;BME280;44037;55.638;37.356;2023-06-14T12:29:08;99326.59;;;23.58;30.29
58239;BME280;44037;55.638;37.356;2023-06-14T12:31:35;99317.75;;;23.59;30.98
58239;BME280;44037;55.638;37.356;2023-06-14T12:34:02;99326.31;;;23.64;31.30
58239;BME280;44037;55.638;37.356;2023-06-14T12:36:29;99322.97;;;23.78;31.55
58239;BME280;44037;55.638;37.356;2023-06-14T12:38:57;99332.47;;;23.82;30.54
58239;BME280;44037;55.638;37.356;2023-06-14T12:41:25;99332.56;;;23.81;30.10
58239;BME280;44037;55.638;37.356;2023-06-14T12:43:53;99318.47;;;23.80;30.56
58239;BME280;44037;55.638;37.356;2023-06-14T12:46:20;99320.94;;;23.83;30.51
58239;BME280;44037;55.638;37.356;2023-06-14T12:48:47;99311.31;;;23.82;29.79
58239;BME280;44037;55.638;37.356;2023-06-14T12:51:15;99310.47;;;23.82;30.20
58239;BME280;44037;55.638;37.356;2023-06-14T12:53:42;99308.50;;;23.85;29.72
58239;BME280;44037;55.638;37.356;2023-06-14T12:56:09;99298.16;;;23.81;29.25
58239;BME280;44037;55.638;37.356;2023-06-14T12:58:36;99310.75;;;23.75;29.75
58239;BME280;44037;55.638;37.356;2023-06-14T13:01:05;99313.81;;;23.85;29.82
58239;BME280;44037;55.638;37.356;2023-06-14T13:03:32;99303.56;;;23.95;30.14
58239;BME280;44037;55.638;37.356;2023-06-14T13:06:00;99302.53;;;23.99;29.92
58239;BME280;44037;55.638;37.356;2023-06-14T13:08:27;99303.31;;;24.01;30.33
58239;BME280;44037;55.638;37.356;2023-06-14T13:10:54;99300.88;;;24.14;30.09